Lloydminster Airport
CYLL : now visible

Airfield :











YOU CAN JOIN US ON...

 
LOGIN :

Register | Disclaimer

   EN    FR    IT 

 









Legend :    VFR   Marginal VFR   IFR   Intensive IFR   Very Intensive IFR
Visi :
Ceiling :
>= 8 km
>= 3000ft
5 to 8 km
1000 to 3000 ft
1500m to 5 km
500 to 1000 ft
800 to 1500m
200 to 500 ft
< 800m
< 200 ft
Symbols :   Thunderstorms  Fog  Heavy snow  Heavy precipitations  Wind > 20 kt







- Airport Elevation : 2193 ft
- IATA code : YLL


CYLL - Lloydminster

CURRENT METAR :
  • 181800Z 02003KT 350V080 15SM FEW030 FEW160 15/07 A2988 RMK CU1AC1 SLP133 DENSITY ALT 2800FT

EXPIRED METARs :
  • 181700Z 07003KT 350V100 15SM FEW020 FEW100 14/08 A2989 RMK SC1AC1 SC TR AC TR SLP134 DENSITY ALT 2700FT
  • 181600Z 04006KT 15SM FEW070 12/09 A2987 RMK AC1 AC TR SLP128 DENSITY ALT 2500FT

TAF TAF CYLL
Valid from the 18 at 18:00 until the 19 at 06:00 UTC


181738Z 1818/1906 05005KT P6SM FEW020
FM182000 03008KT P6SM SCT240
FM190400 07005KT P6SM BKN180 RMK NXT FCST BY 190000Z
No reported NOTAMs for that airfield.



MET'MAP, your aeronautical weather chart ! - Copyright ORBIFLY December 2007 - Disclaimer

ORBIFLY MET'MAP TEAM :

Programming & Development : Alexandra Zaïnal
Concept & Development : Baudouin d'Aumeries
Co-Development & Prog : Marc-Olivier Méhu
Technical & hardware support : Manuel Goepfert

Contact : metmap@orbifly.com




SOURCES & CREDITS :

   NOAA       Earth
Advisory